createdAt,value
2022-08-10T00:01:52.876Z,1.17
2022-08-10T00:04:23.093Z,1.20
2022-08-10T00:06:53.133Z,1.07
2022-08-10T00:09:21.921Z,1.17
2022-08-10T00:11:50.623Z,0.90
2022-08-10T00:14:19.390Z,1.23
2022-08-10T00:16:49.465Z,1.30
2022-08-10T00:19:18.439Z,1.50
2022-08-10T00:21:48.225Z,1.00
2022-08-10T00:24:16.751Z,1.10
2022-08-10T00:28:02.324Z,1.37
2022-08-10T00:29:34.467Z,1.30
2022-08-10T00:32:04.682Z,1.30
2022-08-10T00:34:34.567Z,1.03
2022-08-10T00:37:03.188Z,1.30
2022-08-10T00:39:36.127Z,1.40
2022-08-10T00:42:08.138Z,1.10
2022-08-10T00:44:39.903Z,1.20
2022-08-10T00:47:36.479Z,1.20
2022-08-10T00:49:59.632Z,1.37
2022-08-10T00:52:30.739Z,1.33
2022-08-10T00:55:00.176Z,1.10
2022-08-10T00:57:29.391Z,1.30
2022-08-10T01:00:00.144Z,1.30
2022-08-10T01:02:33.283Z,1.40
2022-08-10T01:05:05.011Z,1.30
2022-08-10T01:07:49.839Z,1.13
2022-08-10T01:10:30.454Z,1.47
2022-08-10T01:13:08.137Z,1.30
2022-08-10T01:15:52.315Z,1.40
2022-08-10T01:18:29.559Z,1.43
2022-08-10T01:21:38.852Z,1.20
2022-08-10T01:24:36.603Z,1.30
2022-08-10T01:27:27.026Z,1.30
2022-08-10T01:30:00.819Z,1.40
2022-08-10T01:32:43.881Z,1.13
2022-08-10T01:35:18.009Z,1.20
2022-08-10T01:37:53.053Z,1.30
2022-08-10T01:40:26.125Z,1.70
2022-08-10T01:42:59.535Z,1.50
2022-08-10T01:45:44.785Z,1.37
2022-08-10T01:48:28.319Z,1.40
2022-08-10T01:51:11.368Z,1.70
2022-08-10T01:53:43.869Z,1.40
2022-08-10T01:56:14.956Z,1.47
2022-08-10T01:58:45.260Z,1.70
2022-08-10T02:01:18.456Z,1.23
2022-08-10T02:04:04.269Z,1.30
2022-08-10T02:06:39.453Z,1.73
2022-08-10T02:09:09.959Z,1.70
2022-08-10T02:12:06.964Z,1.40
2022-08-10T02:14:34.587Z,1.67
2022-08-10T02:17:08.733Z,1.73
2022-08-10T02:19:39.892Z,1.80
2022-08-10T02:22:36.500Z,1.70
2022-08-10T02:25:01.316Z,1.67
2022-08-10T02:27:32.073Z,1.60
2022-08-10T02:30:03.632Z,1.50
2022-08-10T02:32:37.893Z,1.80
2022-08-10T02:35:22.467Z,1.90
2022-08-10T02:37:54.095Z,1.97
2022-08-10T02:45:13.076Z,1.67
2022-08-10T02:45:23.253Z,1.70
2022-08-10T02:46:20.955Z,1.80
2022-08-10T02:48:57.877Z,1.73
2022-08-10T02:52:07.570Z,1.70
2022-08-10T02:54:25.197Z,1.67
2022-08-10T02:56:58.063Z,1.57
2022-08-10T02:59:40.013Z,1.70
2022-08-10T03:02:13.087Z,1.60
2022-08-10T03:04:56.161Z,1.80
2022-08-10T03:07:43.173Z,2.23
2022-08-10T03:10:18.416Z,2.30
2022-08-10T03:12:50.888Z,1.87
2022-08-10T03:15:21.505Z,2.03
2022-08-10T03:17:57.389Z,1.80
2022-08-10T03:20:39.499Z,2.13
2022-08-10T03:23:13.896Z,2.00
2022-08-10T03:25:53.297Z,2.00
2022-08-10T03:28:24.547Z,2.20
2022-08-10T03:30:53.861Z,2.10
2022-08-10T03:33:23.309Z,2.20
2022-08-10T03:36:41.908Z,2.40
2022-08-10T03:38:44.460Z,2.23
2022-08-10T03:41:16.701Z,2.20
2022-08-10T03:43:47.837Z,2.13
2022-08-10T03:46:19.994Z,2.43
2022-08-10T03:48:53.376Z,2.40
2022-08-10T03:51:24.919Z,3.10
2022-08-10T03:54:03.703Z,2.30
2022-08-10T03:56:37.134Z,2.57
2022-08-10T03:59:07.099Z,2.57
2022-08-10T04:02:46.225Z,3.27
2022-08-10T04:04:38.478Z,2.43
2022-08-10T04:07:09.156Z,2.87
2022-08-10T04:09:53.310Z,2.80
2022-08-10T04:12:25.072Z,2.40
2022-08-10T04:14:53.981Z,2.70
2022-08-10T04:17:57.459Z,2.60
2022-08-10T04:20:18.462Z,2.80
2022-08-10T04:22:51.796Z,2.73
2022-08-10T04:25:22.106Z,2.73
2022-08-10T04:27:51.608Z,2.57
2022-08-10T04:30:20.496Z,2.40
2022-08-10T04:32:54.192Z,3.30
2022-08-10T04:35:24.948Z,2.90
2022-08-10T04:37:56.795Z,2.87
2022-08-10T04:40:29.649Z,3.23
2022-08-10T04:43:04.542Z,3.53
2022-08-10T04:45:48.972Z,3.37
2022-08-10T04:48:42.271Z,3.57
2022-08-10T04:51:16.804Z,3.70
2022-08-10T04:54:02.877Z,3.43
2022-08-10T04:56:35.806Z,3.70
2022-08-10T04:59:05.726Z,3.83
2022-08-10T05:02:29.844Z,3.80
2022-08-10T05:04:33.794Z,4.27
2022-08-10T05:07:16.784Z,3.57
2022-08-10T05:10:01.305Z,3.60
2022-08-10T05:12:36.736Z,4.20
2022-08-10T05:15:08.203Z,3.60
2022-08-10T05:17:37.149Z,4.00
2022-08-10T05:20:07.804Z,4.23
2022-08-10T05:22:38.101Z,4.07
2022-08-10T05:25:10.411Z,3.73
2022-08-10T05:27:39.286Z,4.00
2022-08-10T05:30:09.421Z,3.93
2022-08-10T05:32:57.873Z,4.80
2022-08-10T05:35:28.085Z,3.87
2022-08-10T05:38:11.508Z,4.90
2022-08-10T05:40:47.121Z,4.73
2022-08-10T05:43:18.104Z,5.10
2022-08-10T05:46:18.285Z,4.97
2022-08-10T05:48:54.602Z,4.60
2022-08-10T05:51:25.377Z,4.73
2022-08-10T05:54:02.863Z,4.87
2022-08-10T05:56:54.279Z,5.47
2022-08-10T06:00:29.305Z,5.67
2022-08-10T06:02:33.349Z,4.47
2022-08-10T06:05:09.706Z,5.40
2022-08-10T06:07:45.705Z,5.90
2022-08-10T06:10:30.973Z,4.97
2022-08-10T06:13:30.256Z,4.97
2022-08-10T06:16:06.719Z,5.27
2022-08-10T06:18:36.605Z,5.47
2022-08-10T06:21:06.309Z,5.20
2022-08-10T06:23:35.713Z,5.33
2022-08-10T06:26:09.016Z,5.03
2022-08-10T06:28:52.996Z,5.33
2022-08-10T06:31:47.465Z,5.80
2022-08-10T06:34:21.138Z,6.03
2022-08-10T06:36:50.787Z,5.70
2022-08-10T06:39:36.082Z,6.17
2022-08-10T06:42:16.513Z,4.83
2022-08-10T06:44:53.459Z,5.43
2022-08-10T06:47:26.478Z,4.83
2022-08-10T06:50:01.500Z,5.30
2022-08-10T06:52:33.690Z,5.03
2022-08-10T06:55:05.492Z,6.13
2022-08-10T06:57:38.610Z,4.80
2022-08-10T07:00:10.954Z,5.20
2022-08-10T07:02:46.028Z,4.90
2022-08-10T07:05:19.942Z,5.50
2022-08-10T07:07:50.887Z,4.90
2022-08-10T07:10:21.677Z,4.77
2022-08-10T07:12:52.128Z,4.83
2022-08-10T07:15:23.360Z,5.70
2022-08-10T07:18:13.384Z,5.53
2022-08-10T07:20:43.172Z,5.10
2022-08-10T07:23:57.526Z,5.07
2022-08-10T07:26:03.910Z,4.93
2022-08-10T07:28:34.812Z,4.97
2022-08-10T07:31:04.934Z,4.97
2022-08-10T07:33:55.453Z,4.50
2022-08-10T07:36:26.363Z,5.00
2022-08-10T07:38:56.886Z,4.57
2022-08-10T07:41:30.664Z,4.43
2022-08-10T07:44:02.994Z,4.00
2022-08-10T07:46:36.235Z,4.27
2022-08-10T07:49:18.025Z,4.37
2022-08-10T07:51:54.880Z,4.13
2022-08-10T07:54:26.284Z,4.33
2022-08-10T07:57:00.764Z,3.77
2022-08-10T07:59:36.936Z,3.63
2022-08-10T08:02:14.514Z,4.00
2022-08-10T08:04:44.402Z,4.17
2022-08-10T08:07:17.322Z,3.63
2022-08-10T08:09:58.143Z,4.10
2022-08-10T08:12:33.621Z,3.90
2022-08-10T08:16:15.718Z,3.30
2022-08-10T08:18:00.568Z,3.80
2022-08-10T08:20:30.128Z,3.60
2022-08-10T08:24:05.431Z,2.93
2022-08-10T08:25:49.413Z,3.73
2022-08-10T08:28:18.809Z,3.20
2022-08-10T08:30:49.097Z,3.13
2022-08-10T08:33:42.173Z,2.87
2022-08-10T08:36:10.068Z,2.90
2022-08-10T08:38:39.296Z,3.07
2022-08-10T08:41:22.115Z,2.50
2022-08-10T08:43:57.328Z,2.50
2022-08-10T08:46:59.293Z,2.67
2022-08-10T08:50:09.117Z,2.50
2022-08-10T08:52:53.627Z,2.27
2022-08-10T08:56:03.885Z,2.77
2022-08-10T08:58:37.023Z,2.17
2022-08-10T09:01:19.998Z,1.80
2022-08-10T09:04:21.123Z,2.20
2022-08-10T09:08:00.671Z,2.07
2022-08-10T09:10:37.198Z,2.03
2022-08-10T09:13:15.004Z,1.85
2022-08-10T09:15:51.644Z,1.60
2022-08-10T09:18:25.146Z,1.92
2022-08-10T09:21:00.128Z,1.80
2022-08-10T09:24:04.973Z,1.83
2022-08-10T09:26:32.504Z,1.90
2022-08-10T09:29:12.852Z,1.77
2022-08-10T09:33:05.590Z,1.75
2022-08-10T09:36:24.246Z,1.52
2022-08-10T09:38:02.553Z,1.58
2022-08-10T09:41:01.160Z,1.40
2022-08-10T09:43:41.031Z,1.63
2022-08-10T09:46:21.477Z,1.63
2022-08-10T09:49:03.961Z,1.63
2022-08-10T09:51:46.627Z,2.00
2022-08-10T09:54:28.132Z,1.55
2022-08-10T09:57:44.467Z,1.48
2022-08-10T10:00:09.598Z,1.38
2022-08-10T10:02:52.338Z,1.00
2022-08-10T10:05:38.100Z,0.90
2022-08-10T10:08:13.207Z,1.60
2022-08-10T10:10:48.878Z,1.10
2022-08-10T10:13:44.732Z,1.55
2022-08-10T10:16:28.904Z,0.93
2022-08-10T10:19:08.770Z,0.98
2022-08-10T10:21:54.463Z,0.85
2022-08-10T10:24:34.392Z,0.90
2022-08-10T10:27:16.701Z,0.88
2022-08-10T10:30:04.450Z,0.75
2022-08-10T10:32:45.860Z,1.00
2022-08-10T10:35:23.418Z,0.90
2022-08-10T10:38:00.891Z,1.08
2022-08-10T10:40:41.254Z,0.82
2022-08-10T10:43:21.569Z,2.33
2022-08-10T10:46:04.442Z,2.95
2022-08-10T10:48:41.240Z,1.23
2022-08-10T10:51:16.092Z,1.02
2022-08-10T10:53:50.712Z,1.20
2022-08-10T10:56:28.651Z,1.65
2022-08-10T10:59:53.879Z,1.10
2022-08-10T11:02:19.911Z,1.20
2022-08-10T11:04:58.997Z,1.02
2022-08-10T11:07:35.497Z,0.93
2022-08-10T11:10:31.530Z,0.95
2022-08-10T11:14:27.237Z,0.85
2022-08-10T11:16:12.065Z,0.80
2022-08-10T11:18:59.031Z,0.90
2022-08-10T11:21:44.705Z,1.00
2022-08-10T11:24:42.701Z,0.95
2022-08-10T11:27:21.825Z,0.93
2022-08-10T11:30:01.553Z,1.20
2022-08-10T11:32:38.106Z,0.88
2022-08-10T11:35:18.600Z,1.08
2022-08-10T11:38:31.468Z,1.00
2022-08-10T11:40:52.210Z,0.95
2022-08-10T11:43:27.044Z,1.00
2022-08-10T11:46:08.094Z,1.00
2022-08-10T11:48:53.558Z,0.90
2022-08-10T11:51:31.628Z,0.85
2022-08-10T11:54:09.985Z,1.00
2022-08-10T11:56:47.982Z,0.90
2022-08-10T11:59:35.892Z,0.90
2022-08-10T12:02:06.088Z,0.95
2022-08-10T12:04:35.458Z,1.08
2022-08-10T12:08:54.555Z,0.90
2022-08-10T12:10:09.788Z,0.80
2022-08-10T12:12:46.780Z,0.80
2022-08-10T12:15:22.468Z,1.23
2022-08-10T12:17:55.876Z,0.88
2022-08-10T12:20:32.354Z,0.80
2022-08-10T12:23:09.332Z,0.82
2022-08-10T12:25:56.952Z,0.90
2022-08-10T12:28:51.303Z,1.10
2022-08-10T12:31:27.833Z,1.08
2022-08-10T12:34:15.124Z,0.90
2022-08-10T12:36:49.078Z,1.23
2022-08-10T12:39:26.034Z,0.80
2022-08-10T12:42:03.240Z,1.00
2022-08-10T12:44:41.965Z,0.88
2022-08-10T12:47:21.761Z,1.10
2022-08-10T12:50:17.204Z,1.15
2022-08-10T12:52:56.357Z,0.98
2022-08-10T12:55:28.656Z,1.20
2022-08-10T12:57:58.382Z,0.90
2022-08-10T13:00:33.432Z,0.85
2022-08-10T13:03:02.731Z,0.80
2022-08-10T13:06:02.605Z,0.88
2022-08-10T13:08:40.672Z,0.60
2022-08-10T13:11:19.197Z,0.70
2022-08-10T13:14:09.833Z,0.70
2022-08-10T13:16:39.808Z,0.80
2022-08-10T13:19:11.168Z,1.00
2022-08-10T13:21:41.038Z,1.20
2022-08-10T13:24:12.935Z,0.93
2022-08-10T13:26:49.512Z,1.23
2022-08-10T13:29:42.023Z,0.82
2022-08-10T13:32:12.180Z,0.85
2022-08-10T13:34:46.911Z,0.90
2022-08-10T13:37:17.929Z,0.80
2022-08-10T13:39:59.208Z,0.77
2022-08-10T13:42:35.182Z,0.90
2022-08-10T13:45:09.328Z,1.17
2022-08-10T13:47:48.721Z,1.23
2022-08-10T13:50:33.118Z,1.00
2022-08-10T13:53:11.445Z,1.50
2022-08-10T13:55:54.234Z,1.13
2022-08-10T13:58:31.505Z,1.10
2022-08-10T14:01:02.687Z,0.88
2022-08-10T14:03:37.468Z,0.90
2022-08-10T14:06:08.506Z,1.02
2022-08-10T14:08:39.168Z,1.10
2022-08-10T14:11:14.104Z,0.82
2022-08-10T14:13:46.451Z,0.75
2022-08-10T14:16:16.501Z,1.05
2022-08-10T14:18:46.046Z,0.75
2022-08-10T14:21:15.777Z,0.82
2022-08-10T14:23:52.153Z,0.73
2022-08-10T14:26:26.149Z,0.88
2022-08-10T14:29:02.510Z,0.90
2022-08-10T14:31:34.382Z,1.00
2022-08-10T14:34:08.554Z,1.02
2022-08-10T14:36:43.224Z,0.90
2022-08-10T14:39:20.584Z,0.90
2022-08-10T14:42:03.156Z,0.70
2022-08-10T14:44:48.101Z,0.77
2022-08-10T14:47:52.840Z,1.10
2022-08-10T14:50:09.769Z,0.98
2022-08-10T14:52:44.322Z,0.60
2022-08-10T14:55:19.322Z,0.70
2022-08-10T14:58:18.853Z,0.90
2022-08-10T15:00:43.196Z,0.93
2022-08-10T15:04:00.586Z,0.68
2022-08-10T15:06:17.137Z,1.15
2022-08-10T15:08:48.059Z,0.85
2022-08-10T15:12:13.534Z,1.35
2022-08-10T15:14:15.212Z,1.75
2022-08-10T15:17:00.242Z,0.90
2022-08-10T15:20:04.476Z,0.80
2022-08-10T15:22:47.180Z,0.90
2022-08-10T15:25:19.623Z,0.80
2022-08-10T15:27:57.845Z,1.25
2022-08-10T15:30:40.496Z,1.08
2022-08-10T15:34:02.268Z,0.80
2022-08-10T15:36:41.887Z,0.93
2022-08-10T15:39:47.760Z,0.80
2022-08-10T15:42:08.341Z,1.17
2022-08-10T15:44:40.281Z,0.55
2022-08-10T15:47:15.206Z,0.93
2022-08-10T15:49:52.997Z,0.90
2022-08-10T15:52:39.948Z,0.90
2022-08-10T15:55:42.527Z,0.88
2022-08-10T15:58:19.525Z,1.10
2022-08-10T16:00:56.064Z,0.80
2022-08-10T16:03:39.250Z,1.00
2022-08-10T16:06:12.740Z,0.90
2022-08-10T16:08:56.441Z,0.80
2022-08-10T16:11:38.170Z,0.77
2022-08-10T16:14:14.309Z,0.93
2022-08-10T16:16:48.166Z,0.80
2022-08-10T16:19:23.798Z,0.90
2022-08-10T16:21:58.472Z,1.30
2022-08-10T16:24:32.143Z,1.13
2022-08-10T16:27:06.375Z,1.02
2022-08-10T16:29:56.436Z,0.85
2022-08-10T16:32:27.385Z,0.70
2022-08-10T16:34:57.408Z,0.60
2022-08-10T16:37:56.609Z,1.08
2022-08-10T16:40:26.388Z,1.20
2022-08-10T16:42:56.518Z,0.90
2022-08-10T16:45:32.381Z,1.15
2022-08-10T16:48:01.571Z,1.25
2022-08-10T16:50:32.406Z,1.13
2022-08-10T16:53:06.115Z,1.00
2022-08-10T16:55:49.808Z,1.02
2022-08-10T16:58:27.302Z,0.70
2022-08-10T17:01:02.643Z,1.15
2022-08-10T17:04:07.620Z,1.00
2022-08-10T17:06:28.997Z,0.93
2022-08-10T17:09:02.388Z,0.90
2022-08-10T17:11:33.385Z,0.80
2022-08-10T17:14:04.180Z,1.38
2022-08-10T17:16:36.983Z,0.88
2022-08-10T17:19:12.886Z,0.98
2022-08-10T17:21:51.818Z,1.10
2022-08-10T17:24:27.488Z,0.90
2022-08-10T17:26:58.392Z,0.82
2022-08-10T17:29:58.794Z,0.90
2022-08-10T17:32:28.559Z,1.00
2022-08-10T17:35:00.963Z,0.80
2022-08-10T17:37:34.096Z,1.20
2022-08-10T17:40:08.075Z,0.95
2022-08-10T17:42:39.362Z,0.95
2022-08-10T17:45:20.739Z,1.00
2022-08-10T17:48:08.073Z,1.30
2022-08-10T17:50:38.915Z,1.00
2022-08-10T17:53:15.274Z,1.35
2022-08-10T17:55:49.258Z,1.25
2022-08-10T17:58:20.193Z,0.80
2022-08-10T18:00:51.538Z,1.10
2022-08-10T18:03:25.759Z,1.17
2022-08-10T18:05:56.843Z,1.23
2022-08-10T18:08:28.680Z,1.10
2022-08-10T18:11:00.664Z,0.98
2022-08-10T18:13:55.374Z,1.15
2022-08-10T18:16:25.839Z,1.10
2022-08-10T18:19:00.749Z,1.02
2022-08-10T18:21:32.087Z,1.13
2022-08-10T18:24:05.936Z,0.85
2022-08-10T18:26:38.083Z,0.90
2022-08-10T18:29:11.400Z,0.95
2022-08-10T18:31:44.335Z,0.80
2022-08-10T18:34:18.155Z,1.02
2022-08-10T18:36:49.479Z,1.15
2022-08-10T18:39:34.702Z,1.30
2022-08-10T18:42:11.202Z,1.00
2022-08-10T18:44:44.654Z,0.85
2022-08-10T18:47:17.329Z,1.00
2022-08-10T18:49:59.733Z,0.90
2022-08-10T18:52:32.401Z,1.02
2022-08-10T18:55:14.193Z,1.30
2022-08-10T18:58:05.801Z,1.00
2022-08-10T19:00:42.210Z,1.00
2022-08-10T19:03:53.817Z,1.10
2022-08-10T19:06:50.451Z,1.20
2022-08-10T19:09:47.368Z,1.50
2022-08-10T19:12:33.001Z,1.03
2022-08-10T19:15:15.227Z,1.37
2022-08-10T19:18:02.915Z,1.47
2022-08-10T19:20:40.735Z,1.10
2022-08-10T19:23:26.853Z,1.00
2022-08-10T19:26:17.165Z,0.70
2022-08-10T19:29:05.725Z,1.20
2022-08-10T19:31:45.123Z,0.90
2022-08-10T19:34:29.699Z,0.90
2022-08-10T19:37:08.384Z,1.00
2022-08-10T19:39:51.392Z,0.90
2022-08-10T19:42:31.437Z,1.10
2022-08-10T19:45:59.142Z,1.00
2022-08-10T19:48:12.229Z,1.40
2022-08-10T19:50:49.490Z,1.17
2022-08-10T19:53:26.060Z,1.20
2022-08-10T19:56:24.345Z,1.27
2022-08-10T19:58:59.373Z,1.00
2022-08-10T20:01:28.026Z,0.97
2022-08-10T20:04:31.658Z,0.90
2022-08-10T20:07:11.176Z,1.10
2022-08-10T20:09:47.174Z,1.03
2022-08-10T20:12:31.311Z,1.23
2022-08-10T20:15:04.602Z,1.10
2022-08-10T20:17:51.557Z,1.20
2022-08-10T20:20:31.203Z,1.43
2022-08-10T20:23:09.378Z,0.90
2022-08-10T20:25:39.559Z,1.07
2022-08-10T20:28:18.306Z,0.97
2022-08-10T20:30:52.515Z,1.60
2022-08-10T20:33:28.322Z,1.30
2022-08-10T20:36:03.662Z,1.63
2022-08-10T20:38:39.515Z,1.40
2022-08-10T20:41:18.189Z,1.63
2022-08-10T20:44:01.454Z,1.30
2022-08-10T20:46:36.569Z,1.00
2022-08-10T20:49:16.908Z,1.30
2022-08-10T20:51:58.609Z,0.90
2022-08-10T20:54:33.868Z,1.10
2022-08-10T20:57:55.282Z,0.80
2022-08-10T21:00:12.872Z,1.73
2022-08-10T21:02:57.941Z,3.93
2022-08-10T21:05:34.495Z,2.10
2022-08-10T21:08:15.855Z,1.80
2022-08-10T21:11:02.659Z,1.00
2022-08-10T21:13:46.452Z,0.97
2022-08-10T21:16:29.036Z,1.10
2022-08-10T21:19:21.202Z,1.47
2022-08-10T21:22:04.479Z,1.50
2022-08-10T21:24:45.648Z,3.27
2022-08-10T21:27:28.032Z,1.50
2022-08-10T21:30:09.164Z,1.97
2022-08-10T21:32:48.149Z,1.30
2022-08-10T21:35:36.748Z,1.30
2022-08-10T21:38:19.517Z,1.20
2022-08-10T21:41:57.860Z,1.50
2022-08-10T21:44:42.697Z,1.30
2022-08-10T21:48:06.655Z,1.30
2022-08-10T21:50:57.697Z,1.47
2022-08-10T21:53:47.772Z,1.00
2022-08-10T21:56:41.035Z,1.40
2022-08-10T21:59:34.898Z,1.57
2022-08-10T22:02:28.245Z,1.67
2022-08-10T22:05:18.764Z,1.13
2022-08-10T22:08:12.095Z,1.47
2022-08-10T22:11:02.745Z,1.63
2022-08-10T22:13:52.573Z,1.47
2022-08-10T22:16:49.367Z,1.20
2022-08-10T22:19:37.756Z,1.10
2022-08-10T22:22:28.516Z,1.60
2022-08-10T22:25:43.190Z,2.10
2022-08-10T22:28:33.896Z,1.53
2022-08-10T22:31:43.213Z,1.40
2022-08-10T22:35:02.644Z,1.63
2022-08-10T22:37:59.528Z,1.30
2022-08-10T22:40:54.432Z,1.17
2022-08-10T22:43:44.822Z,2.20
2022-08-10T22:46:36.471Z,1.37
2022-08-10T22:49:04.737Z,1.93
2022-08-10T22:51:48.350Z,1.20
2022-08-10T22:54:40.143Z,1.60
2022-08-10T22:57:32.155Z,1.37
2022-08-10T23:00:10.035Z,1.40
2022-08-10T23:02:40.145Z,1.80
2022-08-10T23:05:12.487Z,1.57
2022-08-10T23:07:48.115Z,1.60
2022-08-10T23:10:19.730Z,1.83
2022-08-10T23:12:51.700Z,1.33
2022-08-10T23:15:43.811Z,1.50
2022-08-10T23:18:36.963Z,1.50
2022-08-10T23:21:12.248Z,1.60
2022-08-10T23:23:43.185Z,1.20
2022-08-10T23:26:13.995Z,1.83
2022-08-10T23:28:58.439Z,1.70
2022-08-10T23:31:58.241Z,1.70
2022-08-10T23:34:23.700Z,1.60
2022-08-10T23:36:53.927Z,1.70
2022-08-10T23:39:30.924Z,1.50
2022-08-10T23:42:07.486Z,1.60
2022-08-10T23:44:39.083Z,1.70
2022-08-10T23:47:08.789Z,1.80
2022-08-10T23:49:39.911Z,1.90
2022-08-10T23:52:12.279Z,1.40
2022-08-10T23:54:48.442Z,1.70
2022-08-10T23:57:19.684Z,2.07
2022-08-10T23:59:59.043Z,1.90
